sensor_id;sensor_type;location;lat;lon;timestamp;P1;durP1;ratioP1;P2;durP2;ratioP2
3341;SDS011;1684;50.748;6.154;2023-09-18T00:01:33;16.70;;;6.30;;
3341;SDS011;1684;50.748;6.154;2023-09-18T00:04:02;15.40;;;6.60;;
3341;SDS011;1684;50.748;6.154;2023-09-18T00:06:30;15.90;;;6.97;;
3341;SDS011;1684;50.748;6.154;2023-09-18T00:08:58;13.20;;;6.50;;
3341;SDS011;1684;50.748;6.154;2023-09-18T00:11:27;6.60;;;4.70;;
3341;SDS011;1684;50.748;6.154;2023-09-18T00:13:56;8.47;;;5.00;;
3341;SDS011;1684;50.748;6.154;2023-09-18T00:16:25;13.23;;;5.20;;
3341;SDS011;1684;50.748;6.154;2023-09-18T00:18:53;8.70;;;4.63;;
3341;SDS011;1684;50.748;6.154;2023-09-18T00:21:22;7.50;;;4.80;;
3341;SDS011;1684;50.748;6.154;2023-09-18T00:23:51;15.67;;;5.40;;
3341;SDS011;1684;50.748;6.154;2023-09-18T00:26:19;16.13;;;5.07;;
3341;SDS011;1684;50.748;6.154;2023-09-18T00:28:48;7.60;;;5.30;;
3341;SDS011;1684;50.748;6.154;2023-09-18T00:31:18;18.13;;;6.00;;
3341;SDS011;1684;50.748;6.154;2023-09-18T00:33:46;7.40;;;4.30;;
3341;SDS011;1684;50.748;6.154;2023-09-18T00:36:15;12.73;;;5.57;;
3341;SDS011;1684;50.748;6.154;2023-09-18T00:38:43;9.93;;;6.00;;
3341;SDS011;1684;50.748;6.154;2023-09-18T00:41:12;14.10;;;6.03;;
3341;SDS011;1684;50.748;6.154;2023-09-18T00:43:41;12.20;;;6.13;;
3341;SDS011;1684;50.748;6.154;2023-09-18T00:46:09;15.23;;;6.53;;
3341;SDS011;1684;50.748;6.154;2023-09-18T00:48:40;16.90;;;6.00;;
3341;SDS011;1684;50.748;6.154;2023-09-18T00:51:08;16.17;;;6.03;;
3341;SDS011;1684;50.748;6.154;2023-09-18T00:53:37;11.37;;;5.67;;
3341;SDS011;1684;50.748;6.154;2023-09-18T00:56:05;11.27;;;6.10;;
3341;SDS011;1684;50.748;6.154;2023-09-18T00:58:33;12.10;;;5.37;;
3341;SDS011;1684;50.748;6.154;2023-09-18T01:01:02;14.47;;;5.93;;
3341;SDS011;1684;50.748;6.154;2023-09-18T01:03:31;14.33;;;6.90;;
3341;SDS011;1684;50.748;6.154;2023-09-18T01:06:01;16.30;;;6.53;;
3341;SDS011;1684;50.748;6.154;2023-09-18T01:08:30;11.00;;;5.83;;
3341;SDS011;1684;50.748;6.154;2023-09-18T01:11:00;17.33;;;5.40;;
3341;SDS011;1684;50.748;6.154;2023-09-18T01:13:35;14.20;;;6.73;;
3341;SDS011;1684;50.748;6.154;2023-09-18T01:16:07;12.63;;;5.77;;
3341;SDS011;1684;50.748;6.154;2023-09-18T01:18:36;14.90;;;5.57;;
3341;SDS011;1684;50.748;6.154;2023-09-18T01:21:06;14.37;;;6.53;;
3341;SDS011;1684;50.748;6.154;2023-09-18T01:23:35;7.60;;;5.30;;
3341;SDS011;1684;50.748;6.154;2023-09-18T01:26:04;11.63;;;6.07;;
3341;SDS011;1684;50.748;6.154;2023-09-18T01:28:34;10.93;;;6.73;;
3341;SDS011;1684;50.748;6.154;2023-09-18T01:31:02;11.17;;;6.60;;
3341;SDS011;1684;50.748;6.154;2023-09-18T01:33:30;11.13;;;5.17;;
3341;SDS011;1684;50.748;6.154;2023-09-18T01:35:59;13.73;;;5.90;;
3341;SDS011;1684;50.748;6.154;2023-09-18T01:38:28;10.50;;;5.40;;
3341;SDS011;1684;50.748;6.154;2023-09-18T01:40:59;13.57;;;6.83;;
3341;SDS011;1684;50.748;6.154;2023-09-18T01:43:27;10.00;;;5.37;;
3341;SDS011;1684;50.748;6.154;2023-09-18T01:45:56;12.13;;;5.80;;
3341;SDS011;1684;50.748;6.154;2023-09-18T01:48:25;9.97;;;6.03;;
3341;SDS011;1684;50.748;6.154;2023-09-18T01:50:53;11.40;;;6.00;;
3341;SDS011;1684;50.748;6.154;2023-09-18T01:53:21;7.57;;;5.30;;
3341;SDS011;1684;50.748;6.154;2023-09-18T01:55:50;9.77;;;5.17;;
3341;SDS011;1684;50.748;6.154;2023-09-18T01:58:20;11.10;;;5.17;;
3341;SDS011;1684;50.748;6.154;2023-09-18T02:00:49;10.53;;;5.20;;
3341;SDS011;1684;50.748;6.154;2023-09-18T02:03:17;11.70;;;5.60;;
3341;SDS011;1684;50.748;6.154;2023-09-18T02:06:06;11.60;;;4.50;;
3341;SDS011;1684;50.748;6.154;2023-09-18T02:08:35;8.97;;;4.70;;
3341;SDS011;1684;50.748;6.154;2023-09-18T02:11:03;16.03;;;6.53;;
3341;SDS011;1684;50.748;6.154;2023-09-18T02:13:33;9.40;;;5.30;;
3341;SDS011;1684;50.748;6.154;2023-09-18T02:16:01;10.80;;;5.13;;
3341;SDS011;1684;50.748;6.154;2023-09-18T02:18:30;16.33;;;5.13;;
3341;SDS011;1684;50.748;6.154;2023-09-18T02:20:59;7.57;;;5.50;;
3341;SDS011;1684;50.748;6.154;2023-09-18T02:23:27;10.87;;;5.50;;
3341;SDS011;1684;50.748;6.154;2023-09-18T02:25:56;11.77;;;4.97;;
3341;SDS011;1684;50.748;6.154;2023-09-18T02:28:24;11.90;;;4.93;;
3341;SDS011;1684;50.748;6.154;2023-09-18T02:30:54;12.07;;;4.90;;
3341;SDS011;1684;50.748;6.154;2023-09-18T02:33:22;11.43;;;4.90;;
3341;SDS011;1684;50.748;6.154;2023-09-18T02:35:51;12.03;;;4.73;;
3341;SDS011;1684;50.748;6.154;2023-09-18T02:38:19;8.63;;;4.60;;
3341;SDS011;1684;50.748;6.154;2023-09-18T02:40:47;9.73;;;3.80;;
3341;SDS011;1684;50.748;6.154;2023-09-18T02:43:15;10.30;;;4.77;;
3341;SDS011;1684;50.748;6.154;2023-09-18T02:45:44;9.20;;;4.20;;
3341;SDS011;1684;50.748;6.154;2023-09-18T02:48:13;10.43;;;4.17;;
3341;SDS011;1684;50.748;6.154;2023-09-18T02:50:42;6.83;;;3.93;;
3341;SDS011;1684;50.748;6.154;2023-09-18T02:53:12;5.60;;;3.83;;
3341;SDS011;1684;50.748;6.154;2023-09-18T02:55:44;8.17;;;3.53;;
3341;SDS011;1684;50.748;6.154;2023-09-18T02:58:12;5.03;;;3.33;;
3341;SDS011;1684;50.748;6.154;2023-09-18T03:00:42;8.53;;;4.10;;
3341;SDS011;1684;50.748;6.154;2023-09-18T03:03:11;7.50;;;4.17;;
3341;SDS011;1684;50.748;6.154;2023-09-18T03:05:41;18.30;;;4.30;;
3341;SDS011;1684;50.748;6.154;2023-09-18T03:08:10;9.73;;;4.37;;
3341;SDS011;1684;50.748;6.154;2023-09-18T03:10:39;10.10;;;4.03;;
3341;SDS011;1684;50.748;6.154;2023-09-18T03:13:08;7.53;;;4.13;;
3341;SDS011;1684;50.748;6.154;2023-09-18T03:15:37;13.13;;;4.40;;
3341;SDS011;1684;50.748;6.154;2023-09-18T03:18:06;9.03;;;4.50;;
3341;SDS011;1684;50.748;6.154;2023-09-18T03:20:34;12.13;;;3.60;;
3341;SDS011;1684;50.748;6.154;2023-09-18T03:23:04;5.90;;;3.43;;
3341;SDS011;1684;50.748;6.154;2023-09-18T03:25:32;8.10;;;4.00;;
3341;SDS011;1684;50.748;6.154;2023-09-18T03:28:16;8.10;;;3.70;;
3341;SDS011;1684;50.748;6.154;2023-09-18T03:30:44;7.03;;;3.37;;
3341;SDS011;1684;50.748;6.154;2023-09-18T03:33:12;8.10;;;4.53;;
3341;SDS011;1684;50.748;6.154;2023-09-18T03:35:47;6.47;;;3.33;;
3341;SDS011;1684;50.748;6.154;2023-09-18T03:38:17;7.70;;;3.70;;
3341;SDS011;1684;50.748;6.154;2023-09-18T03:40:46;6.27;;;3.00;;
3341;SDS011;1684;50.748;6.154;2023-09-18T03:43:14;12.03;;;3.07;;
3341;SDS011;1684;50.748;6.154;2023-09-18T03:45:43;6.13;;;3.17;;
3341;SDS011;1684;50.748;6.154;2023-09-18T03:48:11;6.07;;;3.00;;
3341;SDS011;1684;50.748;6.154;2023-09-18T03:50:39;8.97;;;3.60;;
3341;SDS011;1684;50.748;6.154;2023-09-18T03:53:09;7.20;;;3.27;;
3341;SDS011;1684;50.748;6.154;2023-09-18T03:55:38;6.83;;;2.57;;
3341;SDS011;1684;50.748;6.154;2023-09-18T03:58:07;10.80;;;2.30;;
3341;SDS011;1684;50.748;6.154;2023-09-18T04:00:36;5.90;;;2.47;;
3341;SDS011;1684;50.748;6.154;2023-09-18T04:03:04;6.03;;;2.37;;
3341;SDS011;1684;50.748;6.154;2023-09-18T04:05:33;9.07;;;3.20;;
3341;SDS011;1684;50.748;6.154;2023-09-18T04:08:01;6.13;;;2.00;;
3341;SDS011;1684;50.748;6.154;2023-09-18T04:10:29;5.23;;;2.20;;
3341;SDS011;1684;50.748;6.154;2023-09-18T04:13:00;4.60;;;2.50;;
3341;SDS011;1684;50.748;6.154;2023-09-18T04:15:29;9.37;;;2.10;;
3341;SDS011;1684;50.748;6.154;2023-09-18T04:17:57;6.53;;;2.80;;
3341;SDS011;1684;50.748;6.154;2023-09-18T04:20:25;4.70;;;1.97;;
3341;SDS011;1684;50.748;6.154;2023-09-18T04:25:37;5.90;;;1.93;;
3341;SDS011;1684;50.748;6.154;2023-09-18T04:28:07;4.87;;;1.73;;
3341;SDS011;1684;50.748;6.154;2023-09-18T04:30:36;6.70;;;2.20;;
3341;SDS011;1684;50.748;6.154;2023-09-18T04:33:04;4.10;;;1.90;;
3341;SDS011;1684;50.748;6.154;2023-09-18T04:35:32;5.10;;;2.30;;
3341;SDS011;1684;50.748;6.154;2023-09-18T04:38:01;7.37;;;2.07;;
3341;SDS011;1684;50.748;6.154;2023-09-18T04:40:29;6.70;;;2.20;;
3341;SDS011;1684;50.748;6.154;2023-09-18T04:42:58;6.20;;;2.73;;
3341;SDS011;1684;50.748;6.154;2023-09-18T04:45:28;5.40;;;2.60;;
3341;SDS011;1684;50.748;6.154;2023-09-18T04:47:56;6.23;;;2.03;;
3341;SDS011;1684;50.748;6.154;2023-09-18T04:50:24;3.50;;;1.80;;
3341;SDS011;1684;50.748;6.154;2023-09-18T04:52:53;6.70;;;3.03;;
3341;SDS011;1684;50.748;6.154;2023-09-18T04:55:24;5.43;;;2.60;;
3341;SDS011;1684;50.748;6.154;2023-09-18T04:57:52;7.53;;;2.47;;
3341;SDS011;1684;50.748;6.154;2023-09-18T05:00:20;6.33;;;2.53;;
3341;SDS011;1684;50.748;6.154;2023-09-18T05:02:53;8.43;;;2.10;;
3341;SDS011;1684;50.748;6.154;2023-09-18T05:05:21;6.33;;;2.33;;
3341;SDS011;1684;50.748;6.154;2023-09-18T05:07:50;4.60;;;2.20;;
3341;SDS011;1684;50.748;6.154;2023-09-18T05:10:18;8.30;;;2.30;;
3341;SDS011;1684;50.748;6.154;2023-09-18T05:12:46;9.30;;;2.00;;
3341;SDS011;1684;50.748;6.154;2023-09-18T05:15:15;6.90;;;2.73;;
3341;SDS011;1684;50.748;6.154;2023-09-18T05:17:45;6.97;;;3.13;;
3341;SDS011;1684;50.748;6.154;2023-09-18T05:20:16;3.70;;;2.10;;
3341;SDS011;1684;50.748;6.154;2023-09-18T05:22:45;4.50;;;2.30;;
3341;SDS011;1684;50.748;6.154;2023-09-18T05:25:13;6.73;;;2.33;;
3341;SDS011;1684;50.748;6.154;2023-09-18T05:27:42;5.13;;;2.97;;
3341;SDS011;1684;50.748;6.154;2023-09-18T05:30:12;5.60;;;2.40;;
3341;SDS011;1684;50.748;6.154;2023-09-18T05:32:41;6.23;;;3.27;;
3341;SDS011;1684;50.748;6.154;2023-09-18T05:35:10;10.13;;;3.10;;
3341;SDS011;1684;50.748;6.154;2023-09-18T05:37:41;3.87;;;2.07;;
3341;SDS011;1684;50.748;6.154;2023-09-18T05:40:10;6.40;;;1.90;;
3341;SDS011;1684;50.748;6.154;2023-09-18T05:42:39;4.03;;;1.80;;
3341;SDS011;1684;50.748;6.154;2023-09-18T05:45:09;9.93;;;2.27;;
3341;SDS011;1684;50.748;6.154;2023-09-18T05:47:38;5.33;;;2.40;;
3341;SDS011;1684;50.748;6.154;2023-09-18T05:50:07;5.43;;;2.13;;
3341;SDS011;1684;50.748;6.154;2023-09-18T05:52:36;4.90;;;2.40;;
3341;SDS011;1684;50.748;6.154;2023-09-18T05:55:06;3.67;;;2.00;;
3341;SDS011;1684;50.748;6.154;2023-09-18T05:57:34;5.10;;;1.73;;
3341;SDS011;1684;50.748;6.154;2023-09-18T06:00:03;5.10;;;2.10;;
3341;SDS011;1684;50.748;6.154;2023-09-18T06:02:31;4.63;;;1.97;;
3341;SDS011;1684;50.748;6.154;2023-09-18T06:05:00;4.47;;;2.30;;
3341;SDS011;1684;50.748;6.154;2023-09-18T06:07:29;7.30;;;1.90;;
3341;SDS011;1684;50.748;6.154;2023-09-18T06:09:58;8.03;;;2.23;;
3341;SDS011;1684;50.748;6.154;2023-09-18T06:12:28;6.40;;;2.63;;
3341;SDS011;1684;50.748;6.154;2023-09-18T06:14:56;3.90;;;2.10;;
3341;SDS011;1684;50.748;6.154;2023-09-18T06:17:24;6.83;;;3.00;;
3341;SDS011;1684;50.748;6.154;2023-09-18T06:19:53;4.43;;;2.30;;
3341;SDS011;1684;50.748;6.154;2023-09-18T06:22:31;6.80;;;2.50;;
3341;SDS011;1684;50.748;6.154;2023-09-18T06:25:00;4.73;;;2.00;;
3341;SDS011;1684;50.748;6.154;2023-09-18T06:27:29;4.40;;;2.23;;
3341;SDS011;1684;50.748;6.154;2023-09-18T06:29:59;4.93;;;2.10;;
3341;SDS011;1684;50.748;6.154;2023-09-18T06:32:27;5.47;;;2.67;;
3341;SDS011;1684;50.748;6.154;2023-09-18T06:34:56;7.87;;;2.70;;
3341;SDS011;1684;50.748;6.154;2023-09-18T06:37:24;4.60;;;1.97;;
3341;SDS011;1684;50.748;6.154;2023-09-18T06:39:53;6.27;;;2.10;;
3341;SDS011;1684;50.748;6.154;2023-09-18T06:42:21;7.13;;;2.80;;
3341;SDS011;1684;50.748;6.154;2023-09-18T06:44:51;3.93;;;1.83;;
3341;SDS011;1684;50.748;6.154;2023-09-18T06:47:20;5.93;;;2.07;;
3341;SDS011;1684;50.748;6.154;2023-09-18T06:49:50;4.83;;;2.23;;
3341;SDS011;1684;50.748;6.154;2023-09-18T06:52:19;4.47;;;1.90;;
3341;SDS011;1684;50.748;6.154;2023-09-18T06:54:47;5.03;;;2.03;;
3341;SDS011;1684;50.748;6.154;2023-09-18T06:57:15;4.10;;;2.20;;
3341;SDS011;1684;50.748;6.154;2023-09-18T06:59:44;5.20;;;2.20;;
3341;SDS011;1684;50.748;6.154;2023-09-18T07:02:14;10.70;;;2.20;;
3341;SDS011;1684;50.748;6.154;2023-09-18T07:04:43;5.40;;;2.13;;
3341;SDS011;1684;50.748;6.154;2023-09-18T07:07:13;5.80;;;2.67;;
3341;SDS011;1684;50.748;6.154;2023-09-18T07:09:41;7.10;;;3.80;;
3341;SDS011;1684;50.748;6.154;2023-09-18T07:12:29;6.10;;;2.30;;
3341;SDS011;1684;50.748;6.154;2023-09-18T07:17:30;5.23;;;2.20;;
3341;SDS011;1684;50.748;6.154;2023-09-18T07:19:59;10.33;;;2.60;;
3341;SDS011;1684;50.748;6.154;2023-09-18T07:22:27;4.23;;;1.87;;
3341;SDS011;1684;50.748;6.154;2023-09-18T07:24:56;6.20;;;2.13;;
3341;SDS011;1684;50.748;6.154;2023-09-18T07:27:25;5.50;;;2.20;;
3341;SDS011;1684;50.748;6.154;2023-09-18T07:29:55;8.07;;;2.03;;
3341;SDS011;1684;50.748;6.154;2023-09-18T07:32:24;3.70;;;2.20;;
3341;SDS011;1684;50.748;6.154;2023-09-18T07:35:05;5.00;;;2.50;;
3341;SDS011;1684;50.748;6.154;2023-09-18T07:37:34;3.33;;;1.93;;
3341;SDS011;1684;50.748;6.154;2023-09-18T07:40:03;4.60;;;2.00;;
3341;SDS011;1684;50.748;6.154;2023-09-18T07:42:32;9.80;;;2.10;;
3341;SDS011;1684;50.748;6.154;2023-09-18T07:45:00;7.87;;;3.00;;
3341;SDS011;1684;50.748;6.154;2023-09-18T07:47:29;4.40;;;2.30;;
3341;SDS011;1684;50.748;6.154;2023-09-18T07:49:58;4.33;;;1.90;;
3341;SDS011;1684;50.748;6.154;2023-09-18T07:52:28;4.80;;;2.00;;
3341;SDS011;1684;50.748;6.154;2023-09-18T07:54:57;6.87;;;2.13;;
3341;SDS011;1684;50.748;6.154;2023-09-18T07:57:26;13.33;;;3.30;;
3341;SDS011;1684;50.748;6.154;2023-09-18T07:59:56;6.00;;;2.90;;
3341;SDS011;1684;50.748;6.154;2023-09-18T08:02:25;8.40;;;2.00;;
3341;SDS011;1684;50.748;6.154;2023-09-18T08:04:55;7.20;;;2.40;;
3341;SDS011;1684;50.748;6.154;2023-09-18T08:07:23;4.80;;;2.10;;
3341;SDS011;1684;50.748;6.154;2023-09-18T08:09:53;4.13;;;1.93;;
3341;SDS011;1684;50.748;6.154;2023-09-18T08:12:22;5.37;;;2.13;;
3341;SDS011;1684;50.748;6.154;2023-09-18T08:14:51;4.33;;;1.80;;
3341;SDS011;1684;50.748;6.154;2023-09-18T08:17:19;4.73;;;1.97;;
3341;SDS011;1684;50.748;6.154;2023-09-18T08:19:49;4.10;;;2.23;;
3341;SDS011;1684;50.748;6.154;2023-09-18T08:22:19;5.63;;;2.40;;
3341;SDS011;1684;50.748;6.154;2023-09-18T08:24:47;3.50;;;1.97;;
3341;SDS011;1684;50.748;6.154;2023-09-18T08:27:20;3.63;;;1.80;;
3341;SDS011;1684;50.748;6.154;2023-09-18T08:29:48;3.50;;;2.10;;
3341;SDS011;1684;50.748;6.154;2023-09-18T08:32:16;5.43;;;2.27;;
3341;SDS011;1684;50.748;6.154;2023-09-18T08:34:47;4.90;;;2.20;;
3341;SDS011;1684;50.748;6.154;2023-09-18T08:37:15;4.90;;;2.47;;
3341;SDS011;1684;50.748;6.154;2023-09-18T08:39:44;6.30;;;2.70;;
3341;SDS011;1684;50.748;6.154;2023-09-18T08:42:12;5.03;;;2.10;;
3341;SDS011;1684;50.748;6.154;2023-09-18T08:44:43;9.33;;;2.50;;
3341;SDS011;1684;50.748;6.154;2023-09-18T08:47:13;7.73;;;2.57;;
3341;SDS011;1684;50.748;6.154;2023-09-18T08:49:42;6.90;;;2.10;;
3341;SDS011;1684;50.748;6.154;2023-09-18T08:52:10;3.90;;;1.83;;
3341;SDS011;1684;50.748;6.154;2023-09-18T08:54:41;6.57;;;3.97;;
3341;SDS011;1684;50.748;6.154;2023-09-18T08:57:10;4.60;;;2.10;;
3341;SDS011;1684;50.748;6.154;2023-09-18T08:59:39;6.60;;;1.73;;
3341;SDS011;1684;50.748;6.154;2023-09-18T09:02:09;3.00;;;2.00;;
3341;SDS011;1684;50.748;6.154;2023-09-18T09:04:38;4.97;;;1.73;;
3341;SDS011;1684;50.748;6.154;2023-09-18T09:07:06;4.10;;;2.00;;
3341;SDS011;1684;50.748;6.154;2023-09-18T09:09:35;5.30;;;2.30;;
3341;SDS011;1684;50.748;6.154;2023-09-18T09:12:03;4.57;;;2.00;;
3341;SDS011;1684;50.748;6.154;2023-09-18T09:14:32;8.90;;;2.30;;
3341;SDS011;1684;50.748;6.154;2023-09-18T09:17:01;6.10;;;2.37;;
3341;SDS011;1684;50.748;6.154;2023-09-18T09:19:32;5.10;;;2.17;;
3341;SDS011;1684;50.748;6.154;2023-09-18T09:22:03;6.00;;;1.80;;
3341;SDS011;1684;50.748;6.154;2023-09-18T09:24:35;5.00;;;2.93;;
3341;SDS011;1684;50.748;6.154;2023-09-18T09:27:04;4.83;;;2.27;;
3341;SDS011;1684;50.748;6.154;2023-09-18T09:29:32;8.90;;;2.90;;
3341;SDS011;1684;50.748;6.154;2023-09-18T09:32:14;4.67;;;2.10;;
3341;SDS011;1684;50.748;6.154;2023-09-18T09:34:45;6.00;;;2.50;;
3341;SDS011;1684;50.748;6.154;2023-09-18T09:37:13;4.80;;;2.33;;
3341;SDS011;1684;50.748;6.154;2023-09-18T09:39:48;10.83;;;5.07;;
3341;SDS011;1684;50.748;6.154;2023-09-18T09:42:17;5.30;;;2.77;;
3341;SDS011;1684;50.748;6.154;2023-09-18T09:45:00;6.90;;;2.70;;
3341;SDS011;1684;50.748;6.154;2023-09-18T09:47:32;5.10;;;2.07;;
3341;SDS011;1684;50.748;6.154;2023-09-18T09:50:06;4.87;;;2.37;;
3341;SDS011;1684;50.748;6.154;2023-09-18T09:52:40;5.10;;;2.53;;
3341;SDS011;1684;50.748;6.154;2023-09-18T09:55:20;4.50;;;2.30;;
3341;SDS011;1684;50.748;6.154;2023-09-18T09:57:49;4.23;;;1.90;;
3341;SDS011;1684;50.748;6.154;2023-09-18T10:00:18;5.23;;;2.47;;
3341;SDS011;1684;50.748;6.154;2023-09-18T10:02:54;5.13;;;2.23;;
3341;SDS011;1684;50.748;6.154;2023-09-18T10:05:27;8.63;;;2.80;;
3341;SDS011;1684;50.748;6.154;2023-09-18T10:07:57;3.40;;;1.80;;
3341;SDS011;1684;50.748;6.154;2023-09-18T10:10:31;4.03;;;2.00;;
3341;SDS011;1684;50.748;6.154;2023-09-18T10:13:00;4.23;;;2.13;;
3341;SDS011;1684;50.748;6.154;2023-09-18T10:15:31;5.03;;;2.10;;
3341;SDS011;1684;50.748;6.154;2023-09-18T10:18:05;7.13;;;2.10;;
3341;SDS011;1684;50.748;6.154;2023-09-18T10:20:39;4.10;;;2.37;;
3341;SDS011;1684;50.748;6.154;2023-09-18T10:23:12;3.17;;;2.07;;
3341;SDS011;1684;50.748;6.154;2023-09-18T10:25:44;6.70;;;2.03;;
3341;SDS011;1684;50.748;6.154;2023-09-18T10:28:13;3.73;;;2.20;;
3341;SDS011;1684;50.748;6.154;2023-09-18T10:30:42;4.77;;;2.10;;
3341;SDS011;1684;50.748;6.154;2023-09-18T10:33:11;4.83;;;2.63;;
3341;SDS011;1684;50.748;6.154;2023-09-18T10:35:41;4.10;;;2.13;;
3341;SDS011;1684;50.748;6.154;2023-09-18T10:38:09;8.80;;;2.50;;
3341;SDS011;1684;50.748;6.154;2023-09-18T10:40:38;7.23;;;3.10;;
3341;SDS011;1684;50.748;6.154;2023-09-18T10:43:07;4.33;;;2.30;;
3341;SDS011;1684;50.748;6.154;2023-09-18T10:45:36;4.87;;;2.30;;
3341;SDS011;1684;50.748;6.154;2023-09-18T10:48:05;3.40;;;2.00;;
3341;SDS011;1684;50.748;6.154;2023-09-18T10:50:35;8.93;;;2.50;;
3341;SDS011;1684;50.748;6.154;2023-09-18T10:53:07;4.17;;;2.27;;
3341;SDS011;1684;50.748;6.154;2023-09-18T10:55:35;4.07;;;2.40;;
3341;SDS011;1684;50.748;6.154;2023-09-18T10:58:04;6.00;;;2.60;;
3341;SDS011;1684;50.748;6.154;2023-09-18T11:00:33;3.80;;;2.10;;
3341;SDS011;1684;50.748;6.154;2023-09-18T11:03:09;6.30;;;2.47;;
3341;SDS011;1684;50.748;6.154;2023-09-18T11:05:38;3.27;;;2.43;;
3341;SDS011;1684;50.748;6.154;2023-09-18T11:08:30;5.60;;;2.47;;
3341;SDS011;1684;50.748;6.154;2023-09-18T11:11:01;4.03;;;2.57;;
3341;SDS011;1684;50.748;6.154;2023-09-18T11:13:37;3.93;;;2.30;;
3341;SDS011;1684;50.748;6.154;2023-09-18T11:16:13;3.27;;;2.27;;
3341;SDS011;1684;50.748;6.154;2023-09-18T11:18:50;9.73;;;2.87;;
3341;SDS011;1684;50.748;6.154;2023-09-18T11:21:23;4.20;;;2.53;;
3341;SDS011;1684;50.748;6.154;2023-09-18T11:23:59;5.50;;;2.90;;
3341;SDS011;1684;50.748;6.154;2023-09-18T11:26:29;5.30;;;2.50;;
3341;SDS011;1684;50.748;6.154;2023-09-18T11:29:00;4.60;;;2.13;;
3341;SDS011;1684;50.748;6.154;2023-09-18T11:31:40;5.10;;;2.47;;
3341;SDS011;1684;50.748;6.154;2023-09-18T11:34:13;7.60;;;2.43;;
3341;SDS011;1684;50.748;6.154;2023-09-18T11:36:42;8.03;;;3.10;;
3341;SDS011;1684;50.748;6.154;2023-09-18T11:39:12;5.23;;;2.80;;
3341;SDS011;1684;50.748;6.154;2023-09-18T11:41:41;8.73;;;2.37;;
3341;SDS011;1684;50.748;6.154;2023-09-18T11:47:01;3.80;;;2.33;;
3341;SDS011;1684;50.748;6.154;2023-09-18T11:49:30;4.60;;;2.47;;
3341;SDS011;1684;50.748;6.154;2023-09-18T11:51:59;4.10;;;2.77;;
3341;SDS011;1684;50.748;6.154;2023-09-18T11:54:29;4.00;;;1.90;;
3341;SDS011;1684;50.748;6.154;2023-09-18T11:57:00;4.27;;;2.47;;
3341;SDS011;1684;50.748;6.154;2023-09-18T11:59:35;5.70;;;2.57;;
3341;SDS011;1684;50.748;6.154;2023-09-18T12:02:09;9.47;;;3.60;;
3341;SDS011;1684;50.748;6.154;2023-09-18T12:04:42;3.13;;;2.20;;
3341;SDS011;1684;50.748;6.154;2023-09-18T12:07:10;3.33;;;2.33;;
3341;SDS011;1684;50.748;6.154;2023-09-18T12:09:40;8.03;;;3.17;;
3341;SDS011;1684;50.748;6.154;2023-09-18T12:12:08;4.43;;;2.43;;
3341;SDS011;1684;50.748;6.154;2023-09-18T12:14:40;6.77;;;2.60;;
3341;SDS011;1684;50.748;6.154;2023-09-18T12:17:13;4.30;;;2.17;;
3341;SDS011;1684;50.748;6.154;2023-09-18T12:19:50;5.23;;;2.47;;
3341;SDS011;1684;50.748;6.154;2023-09-18T12:22:23;9.30;;;2.67;;
3341;SDS011;1684;50.748;6.154;2023-09-18T12:24:53;5.43;;;1.90;;
3341;SDS011;1684;50.748;6.154;2023-09-18T12:27:22;5.47;;;2.13;;
3341;SDS011;1684;50.748;6.154;2023-09-18T12:29:53;5.80;;;2.40;;
3341;SDS011;1684;50.748;6.154;2023-09-18T12:32:22;3.93;;;2.03;;
3341;SDS011;1684;50.748;6.154;2023-09-18T12:34:50;5.67;;;2.60;;
3341;SDS011;1684;50.748;6.154;2023-09-18T12:37:20;4.03;;;2.50;;
3341;SDS011;1684;50.748;6.154;2023-09-18T12:39:48;3.10;;;1.60;;
3341;SDS011;1684;50.748;6.154;2023-09-18T12:42:19;4.00;;;2.20;;
3341;SDS011;1684;50.748;6.154;2023-09-18T12:44:48;3.97;;;1.60;;
3341;SDS011;1684;50.748;6.154;2023-09-18T12:47:17;3.47;;;2.03;;
3341;SDS011;1684;50.748;6.154;2023-09-18T12:49:45;5.17;;;2.53;;
3341;SDS011;1684;50.748;6.154;2023-09-18T12:52:21;3.37;;;2.30;;
3341;SDS011;1684;50.748;6.154;2023-09-18T12:54:52;5.60;;;2.50;;
3341;SDS011;1684;50.748;6.154;2023-09-18T12:57:23;4.67;;;2.50;;
3341;SDS011;1684;50.748;6.154;2023-09-18T12:59:52;6.27;;;2.30;;
3341;SDS011;1684;50.748;6.154;2023-09-18T13:02:21;8.43;;;2.70;;
3341;SDS011;1684;50.748;6.154;2023-09-18T13:04:55;6.00;;;2.87;;
3341;SDS011;1684;50.748;6.154;2023-09-18T13:07:25;6.93;;;2.80;;
3341;SDS011;1684;50.748;6.154;2023-09-18T13:10:00;5.63;;;2.10;;
3341;SDS011;1684;50.748;6.154;2023-09-18T13:12:45;6.20;;;3.00;;
3341;SDS011;1684;50.748;6.154;2023-09-18T13:15:25;3.80;;;2.20;;
3341;SDS011;1684;50.748;6.154;2023-09-18T13:17:55;4.90;;;2.10;;
3341;SDS011;1684;50.748;6.154;2023-09-18T13:20:24;6.40;;;2.97;;
3341;SDS011;1684;50.748;6.154;2023-09-18T13:22:56;8.33;;;2.40;;
3341;SDS011;1684;50.748;6.154;2023-09-18T13:25:26;3.50;;;1.97;;
3341;SDS011;1684;50.748;6.154;2023-09-18T13:27:56;4.43;;;2.20;;
3341;SDS011;1684;50.748;6.154;2023-09-18T13:30:24;4.30;;;2.53;;
3341;SDS011;1684;50.748;6.154;2023-09-18T13:33:01;3.37;;;2.10;;
3341;SDS011;1684;50.748;6.154;2023-09-18T13:35:30;2.50;;;1.73;;
3341;SDS011;1684;50.748;6.154;2023-09-18T13:37:58;5.17;;;2.10;;
3341;SDS011;1684;50.748;6.154;2023-09-18T13:40:26;4.23;;;1.90;;
3341;SDS011;1684;50.748;6.154;2023-09-18T13:42:56;5.40;;;1.83;;
3341;SDS011;1684;50.748;6.154;2023-09-18T13:45:24;5.83;;;2.77;;
3341;SDS011;1684;50.748;6.154;2023-09-18T13:47:53;3.23;;;2.00;;
3341;SDS011;1684;50.748;6.154;2023-09-18T13:50:22;5.60;;;3.00;;
3341;SDS011;1684;50.748;6.154;2023-09-18T13:52:50;5.00;;;2.00;;
3341;SDS011;1684;50.748;6.154;2023-09-18T13:55:19;4.80;;;2.77;;
3341;SDS011;1684;50.748;6.154;2023-09-18T13:57:47;5.10;;;2.50;;
3341;SDS011;1684;50.748;6.154;2023-09-18T14:00:17;5.60;;;2.20;;
3341;SDS011;1684;50.748;6.154;2023-09-18T14:02:46;5.93;;;2.03;;
3341;SDS011;1684;50.748;6.154;2023-09-18T14:05:15;3.97;;;2.13;;
3341;SDS011;1684;50.748;6.154;2023-09-18T14:07:44;6.27;;;2.63;;
3341;SDS011;1684;50.748;6.154;2023-09-18T14:10:13;4.63;;;2.27;;
3341;SDS011;1684;50.748;6.154;2023-09-18T14:12:43;3.10;;;1.97;;
3341;SDS011;1684;50.748;6.154;2023-09-18T14:15:11;4.00;;;2.20;;
3341;SDS011;1684;50.748;6.154;2023-09-18T14:17:41;8.73;;;3.17;;
3341;SDS011;1684;50.748;6.154;2023-09-18T14:20:10;3.50;;;2.10;;
3341;SDS011;1684;50.748;6.154;2023-09-18T14:22:38;4.80;;;2.80;;
3341;SDS011;1684;50.748;6.154;2023-09-18T14:25:07;3.93;;;2.20;;
3341;SDS011;1684;50.748;6.154;2023-09-18T14:27:35;7.33;;;2.37;;
3341;SDS011;1684;50.748;6.154;2023-09-18T14:30:04;5.50;;;2.57;;
3341;SDS011;1684;50.748;6.154;2023-09-18T14:32:34;5.00;;;2.43;;
3341;SDS011;1684;50.748;6.154;2023-09-18T14:35:05;3.80;;;2.40;;
3341;SDS011;1684;50.748;6.154;2023-09-18T14:37:35;4.47;;;2.60;;
3341;SDS011;1684;50.748;6.154;2023-09-18T14:40:04;4.30;;;2.47;;
3341;SDS011;1684;50.748;6.154;2023-09-18T14:42:35;5.60;;;2.30;;
3341;SDS011;1684;50.748;6.154;2023-09-18T14:45:04;3.03;;;1.97;;
3341;SDS011;1684;50.748;6.154;2023-09-18T14:47:32;8.17;;;2.23;;
3341;SDS011;1684;50.748;6.154;2023-09-18T14:50:01;4.30;;;1.93;;
3341;SDS011;1684;50.748;6.154;2023-09-18T14:52:32;3.70;;;2.03;;
3341;SDS011;1684;50.748;6.154;2023-09-18T14:55:00;5.77;;;2.80;;
3341;SDS011;1684;50.748;6.154;2023-09-18T14:57:31;3.10;;;2.00;;
3341;SDS011;1684;50.748;6.154;2023-09-18T15:00:00;3.00;;;1.90;;
3341;SDS011;1684;50.748;6.154;2023-09-18T15:02:32;6.40;;;2.47;;
3341;SDS011;1684;50.748;6.154;2023-09-18T15:05:01;4.23;;;2.27;;
3341;SDS011;1684;50.748;6.154;2023-09-18T15:07:34;4.83;;;2.27;;
3341;SDS011;1684;50.748;6.154;2023-09-18T15:10:03;3.50;;;2.40;;
3341;SDS011;1684;50.748;6.154;2023-09-18T15:12:32;3.00;;;1.90;;
3341;SDS011;1684;50.748;6.154;2023-09-18T15:15:01;8.33;;;2.20;;
3341;SDS011;1684;50.748;6.154;2023-09-18T15:17:29;4.43;;;2.47;;
3341;SDS011;1684;50.748;6.154;2023-09-18T15:19:59;6.53;;;3.20;;
3341;SDS011;1684;50.748;6.154;2023-09-18T15:22:27;4.93;;;2.77;;
3341;SDS011;1684;50.748;6.154;2023-09-18T15:24:57;5.43;;;2.30;;
3341;SDS011;1684;50.748;6.154;2023-09-18T15:27:26;5.70;;;2.83;;
3341;SDS011;1684;50.748;6.154;2023-09-18T15:29:55;4.53;;;2.23;;
3341;SDS011;1684;50.748;6.154;2023-09-18T15:32:24;3.97;;;2.40;;
3341;SDS011;1684;50.748;6.154;2023-09-18T15:34:52;5.30;;;2.90;;
3341;SDS011;1684;50.748;6.154;2023-09-18T15:37:21;4.37;;;2.30;;